Time;durP1;ratioP1;P1;durP2;ratioP2;P2;SDS_P1;SDS_P2;PMS_P1;PMS_P2;Temp;Humidity;BMP_temperature;BMP_pressure;BME280_temperature;BME280_humidity;BME280_pressure;Samples;Min_cycle;Max_cycle;Signal;HPM_P1;HPM_P2
2021/12/04 00:00:50;;;;;;;19.45;11.77;;;;;;;;;;5033430;28;20469;-73
2021/12/04 00:03:16;;;;;;;13.32;10.98;;;;;;;;;;5033303;28;20169;-72
2021/12/04 00:05:55;;;;;;;11.82;9.80;;;;;;;;;;5032989;28;20180;-71
2021/12/04 00:08:24;;;;;;;15.23;11.45;;;;;;;;;;5032479;28;20184;-72
2021/12/04 00:10:50;;;;;;;12.65;10.15;;;;;;;;;;5033022;28;20170;-72
2021/12/04 00:13:16;;;;;;;14.50;11.50;;;;;;;;;;5032655;28;20631;-72
2021/12/04 00:15:42;;;;;;;20.63;12.00;;;;;;;;;;5032431;28;20554;-73
2021/12/04 00:18:08;;;;;;;14.97;12.00;;;;;;;;;;5032502;28;20382;-72
2021/12/04 00:20:35;;;;;;;14.97;10.90;;;;;;;;;;5032285;28;20859;-72
2021/12/04 00:23:01;;;;;;;10.90;9.82;;;;;;;;;;5032673;28;20499;-72
2021/12/04 00:25:28;;;;;;;13.70;10.80;;;;;;;;;;5032431;28;20248;-73
2021/12/04 00:27:54;;;;;;;13.50;11.15;;;;;;;;;;5032547;28;20400;-73
2021/12/04 00:30:20;;;;;;;14.32;11.90;;;;;;;;;;5032693;28;20165;-72
2021/12/04 00:32:59;;;;;;;12.40;11.20;;;;;;;;;;5032717;28;20184;-73
2021/12/04 00:38:17;;;;;;;12.55;11.43;;;;;;;;;;5032331;28;20161;-72
2021/12/04 00:49:13;;;;;;;14.63;10.73;;;;;;;;;;5031582;28;20231;-73
2021/12/04 00:51:45;;;;;;;16.50;11.82;;;;;;;;;;5031981;28;20173;-72
2021/12/04 00:54:12;;;;;;;12.15;10.82;;;;;;;;;;5032220;28;20590;-72
2021/12/04 00:56:39;;;;;;;12.00;10.90;;;;;;;;;;5031963;28;20299;-72
2021/12/04 00:59:05;;;;;;;12.15;10.10;;;;;;;;;;5031973;28;20627;-71
2021/12/04 01:01:31;;;;;;;12.57;11.25;;;;;;;;;;5032162;28;20593;-72
2021/12/04 01:03:57;;;;;;;11.95;10.45;;;;;;;;;;5031324;28;20168;-72
2021/12/04 01:06:23;;;;;;;12.97;10.60;;;;;;;;;;5033122;28;20173;-71
2021/12/04 01:08:49;;;;;;;12.48;10.93;;;;;;;;;;5033235;28;20907;-70
2021/12/04 01:11:15;;;;;;;11.10;10.27;;;;;;;;;;5033292;28;20251;-72
2021/12/04 01:13:44;;;;;;;10.82;9.82;;;;;;;;;;5033247;28;20466;-71
2021/12/04 01:16:11;;;;;;;12.50;10.63;;;;;;;;;;5033156;28;20220;-71
2021/12/04 01:18:37;;;;;;;11.88;10.63;;;;;;;;;;5034787;28;20153;-72
2021/12/04 01:21:03;;;;;;;10.55;9.70;;;;;;;;;;5037209;28;20616;-72
2021/12/04 01:23:30;;;;;;;10.60;9.55;;;;;;;;;;5037298;28;20201;-72
2021/12/04 01:25:56;;;;;;;8.95;8.35;;;;;;;;;;5037059;28;20174;-72
2021/12/04 01:28:22;;;;;;;8.90;8.30;;;;;;;;;;5037165;28;20532;-72
2021/12/04 01:30:48;;;;;;;8.73;7.90;;;;;;;;;;5037044;28;20401;-72
2021/12/04 01:33:14;;;;;;;8.38;7.65;;;;;;;;;;5037024;28;20392;-72
2021/12/04 01:35:40;;;;;;;6.68;6.28;;;;;;;;;;5037125;28;20221;-72
2021/12/04 01:38:06;;;;;;;8.00;7.23;;;;;;;;;;5036852;28;20291;-72
2021/12/04 01:40:32;;;;;;;8.45;6.50;;;;;;;;;;5037100;28;20379;-72
2021/12/04 01:42:58;;;;;;;6.95;6.13;;;;;;;;;;5036824;28;20201;-71
2021/12/04 01:45:24;;;;;;;6.43;5.90;;;;;;;;;;5036822;28;20251;-71
2021/12/04 01:47:57;;;;;;;7.10;6.47;;;;;;;;;;5036965;28;20773;-71
2021/12/04 01:50:23;;;;;;;6.25;5.82;;;;;;;;;;5036532;28;20229;-71
2021/12/04 01:52:49;;;;;;;5.80;5.38;;;;;;;;;;5036892;28;20568;-71
2021/12/04 01:55:15;;;;;;;6.25;5.90;;;;;;;;;;5036770;28;20205;-71
2021/12/04 01:57:41;;;;;;;4.33;4.23;;;;;;;;;;5036610;28;20620;-71
2021/12/04 02:00:08;;;;;;;4.70;4.40;;;;;;;;;;5036478;28;20381;-71
2021/12/04 02:02:34;;;;;;;3.65;3.55;;;;;;;;;;5036498;28;20444;-72
2021/12/04 02:05:00;;;;;;;3.80;3.70;;;;;;;;;;5036409;28;20625;-71
2021/12/04 02:07:26;;;;;;;3.10;3.00;;;;;;;;;;5036307;28;20401;-72
2021/12/04 02:09:52;;;;;;;3.60;3.60;;;;;;;;;;5036339;28;20466;-72
2021/12/04 02:12:18;;;;;;;2.67;2.57;;;;;;;;;;5036306;28;20482;-71
2021/12/04 02:14:44;;;;;;;3.77;3.20;;;;;;;;;;5036235;28;20408;-72
2021/12/04 02:17:10;;;;;;;3.47;3.27;;;;;;;;;;5036145;28;20471;-71
2021/12/04 02:19:38;;;;;;;2.80;2.70;;;;;;;;;;5036435;28;20396;-71
2021/12/04 02:22:04;;;;;;;2.10;2.10;;;;;;;;;;5036107;28;20382;-71
2021/12/04 02:24:31;;;;;;;2.07;1.97;;;;;;;;;;5018271;28;20896;-72
2021/12/04 02:26:57;;;;;;;1.80;1.80;;;;;;;;;;5036095;28;20530;-72
2021/12/04 02:29:22;;;;;;;1.90;1.90;;;;;;;;;;5035715;28;20462;-71
2021/12/04 02:31:49;;;;;;;1.60;1.60;;;;;;;;;;5035671;28;20420;-72
2021/12/04 02:34:22;;;;;;;2.00;2.00;;;;;;;;;;5035851;28;20390;-71
2021/12/04 02:36:48;;;;;;;1.93;1.83;;;;;;;;;;5035678;28;20475;-71
2021/12/04 02:39:27;;;;;;;1.70;1.70;;;;;;;;;;5035997;28;20458;-71
2021/12/04 02:41:53;;;;;;;2.00;2.00;;;;;;;;;;5035763;28;20404;-71
2021/12/04 02:44:19;;;;;;;1.80;1.80;;;;;;;;;;5035693;28;20404;-71
2021/12/04 02:46:46;;;;;;;3.33;1.70;;;;;;;;;;5035878;28;20410;-72
2021/12/04 02:49:14;;;;;;;1.60;1.60;;;;;;;;;;5035535;28;20463;-71
2021/12/04 02:51:40;;;;;;;1.80;1.57;;;;;;;;;;5035592;28;20411;-72
2021/12/04 02:54:07;;;;;;;1.70;1.70;;;;;;;;;;5035543;28;20420;-71
2021/12/04 02:56:33;;;;;;;1.60;1.60;;;;;;;;;;5035685;28;20474;-71
2021/12/04 02:59:02;;;;;;;1.93;1.63;;;;;;;;;;5035420;28;20408;-71
2021/12/04 03:01:28;;;;;;;1.77;1.77;;;;;;;;;;5035390;28;20400;-72
2021/12/04 03:04:10;;;;;;;1.73;1.73;;;;;;;;;;5035584;28;20760;-71
2021/12/04 03:06:45;;;;;;;2.00;1.90;;;;;;;;;;5035163;28;20891;-71
2021/12/04 03:09:12;;;;;;;1.50;1.50;;;;;;;;;;5035302;28;20387;-71
2021/12/04 03:11:38;;;;;;;1.40;1.40;;;;;;;;;;5035277;28;20408;-71
2021/12/04 03:14:04;;;;;;;1.80;1.20;;;;;;;;;;5035150;28;20450;-71
2021/12/04 03:16:31;;;;;;;1.33;1.33;;;;;;;;;;5035044;28;20466;-71
2021/12/04 03:18:57;;;;;;;1.10;1.10;;;;;;;;;;5034965;28;20475;-72
2021/12/04 03:21:23;;;;;;;1.30;1.30;;;;;;;;;;5034983;28;20400;-71
2021/12/04 03:23:56;;;;;;;1.40;1.40;;;;;;;;;;5034989;28;20905;-71
2021/12/04 03:26:23;;;;;;;1.20;1.20;;;;;;;;;;5034889;28;20891;-71
2021/12/04 03:28:50;;;;;;;1.40;1.40;;;;;;;;;;5034931;28;20396;-72
2021/12/04 03:42:15;;;;;;;1.77;1.77;;;;;;;;;;5033688;28;20783;-71
2021/12/04 03:44:41;;;;;;;1.40;1.40;;;;;;;;;;5034534;28;20761;-71
2021/12/04 03:47:09;;;;;;;1.13;1.13;;;;;;;;;;5034528;28;20470;-71
2021/12/04 03:49:35;;;;;;;1.47;1.47;;;;;;;;;;5034390;28;20467;-71
2021/12/04 03:52:01;;;;;;;1.17;1.17;;;;;;;;;;5034391;28;20412;-71
2021/12/04 03:54:28;;;;;;;1.10;1.10;;;;;;;;;;5034592;28;20427;-71
2021/12/04 03:57:03;;;;;;;1.23;1.23;;;;;;;;;;5034271;28;20879;-71
2021/12/04 03:59:29;;;;;;;1.03;1.00;;;;;;;;;;5034285;28;20737;-71
2021/12/04 04:01:55;;;;;;;0.70;0.70;;;;;;;;;;5034200;28;20470;-71
2021/12/04 04:04:21;;;;;;;0.80;0.80;;;;;;;;;;5034176;28;20396;-72
2021/12/04 04:06:47;;;;;;;0.77;0.77;;;;;;;;;;5034096;28;20423;-72
2021/12/04 04:09:13;;;;;;;0.63;0.63;;;;;;;;;;5034151;28;20491;-71
2021/12/04 04:11:39;;;;;;;0.87;0.87;;;;;;;;;;5034109;28;20502;-72
2021/12/04 04:14:06;;;;;;;0.70;0.70;;;;;;;;;;5034285;28;20411;-72
2021/12/04 04:16:36;;;;;;;0.67;0.67;;;;;;;;;;5033900;28;20467;-71
2021/12/04 04:19:01;;;;;;;0.73;0.73;;;;;;;;;;5034221;28;20408;-72
2021/12/04 04:21:27;;;;;;;1.77;1.20;;;;;;;;;;5033948;28;20935;-71
2021/12/04 04:23:53;;;;;;;0.90;0.90;;;;;;;;;;5033829;28;20408;-71
2021/12/04 04:26:19;;;;;;;0.80;0.80;;;;;;;;;;5033842;28;20420;-71
2021/12/04 04:28:45;;;;;;;0.70;0.70;;;;;;;;;;5033805;28;20407;-71
2021/12/04 04:31:11;;;;;;;0.73;0.73;;;;;;;;;;5033743;28;20416;-71
2021/12/04 04:33:42;;;;;;;0.53;0.53;;;;;;;;;;5033980;28;20436;-71
2021/12/04 05:00:31;;;;;;;0.60;0.60;;;;;;;;;;5033698;28;20434;-72
2021/12/04 05:13:39;;;;;;;0.80;0.57;;;;;;;;;;5033337;28;20408;-72
2021/12/04 05:16:15;;;;;;;0.40;0.40;;;;;;;;;;5033170;28;20467;-72
2021/12/04 05:19:12;;;;;;;0.57;0.57;;;;;;;;;;5033193;28;20415;-72
2021/12/04 05:21:29;;;;;;;0.70;0.40;;;;;;;;;;5032441;28;20506;-72
2021/12/04 05:23:55;;;;;;;0.30;0.30;;;;;;;;;;5033240;28;20404;-71
2021/12/04 05:26:26;;;;;;;0.40;0.40;;;;;;;;;;5033071;28;20414;-72
2021/12/04 05:28:54;;;;;;;0.30;0.30;;;;;;;;;;5033219;28;20470;-72
2021/12/04 05:31:20;;;;;;;0.73;0.40;;;;;;;;;;5034023;28;20415;-72
2021/12/04 05:33:47;;;;;;;0.30;0.30;;;;;;;;;;5033336;28;20941;-72
2021/12/04 05:36:13;;;;;;;0.33;0.33;;;;;;;;;;5033311;28;20533;-72
2021/12/04 05:38:39;;;;;;;0.30;0.30;;;;;;;;;;5033476;28;20503;-73
2021/12/04 05:41:05;;;;;;;0.53;0.30;;;;;;;;;;5033612;28;20407;-72
2021/12/04 05:43:31;;;;;;;0.47;0.40;;;;;;;;;;5033210;28;20455;-72
2021/12/04 05:46:16;;;;;;;0.30;0.30;;;;;;;;;;5033109;28;20396;-71
2021/12/04 05:56:20;;;;;;;0.30;0.30;;;;;;;;;;5033095;28;20498;-71
2021/12/04 05:58:47;;;;;;;0.40;0.40;;;;;;;;;;5032878;28;20398;-71
2021/12/04 06:01:14;;;;;;;0.30;0.30;;;;;;;;;;5032837;28;20400;-71
2021/12/04 06:03:40;;;;;;;0.30;0.30;;;;;;;;;;5032872;28;20388;-71
2021/12/04 06:06:06;;;;;;;0.80;0.40;;;;;;;;;;5034952;28;20449;-71
2021/12/04 06:08:32;;;;;;;0.30;0.30;;;;;;;;;;5036407;28;20388;-72
2021/12/04 06:10:58;;;;;;;0.43;0.33;;;;;;;;;;5036398;28;20607;-72
2021/12/04 06:13:25;;;;;;;0.27;0.27;;;;;;;;;;5036602;28;20424;-72
2021/12/04 06:15:51;;;;;;;0.40;0.40;;;;;;;;;;5036110;28;20450;-71
2021/12/04 06:18:17;;;;;;;0.80;0.80;;;;;;;;;;5036495;28;20766;-72
2021/12/04 06:23:29;;;;;;;2.93;0.40;;;;;;;;;;5036665;28;20723;-71
2021/12/04 06:25:55;;;;;;;0.30;0.30;;;;;;;;;;5036095;28;20446;-72
2021/12/04 06:28:21;;;;;;;0.50;0.30;;;;;;;;;;5035931;28;20419;-72
2021/12/04 06:30:47;;;;;;;0.30;0.30;;;;;;;;;;5035957;28;20400;-72
2021/12/04 06:33:17;;;;;;;0.30;0.30;;;;;;;;;;5036154;28;20418;-72
2021/12/04 06:35:44;;;;;;;0.30;0.30;;;;;;;;;;5036048;28;20513;-72
2021/12/04 06:38:10;;;;;;;0.33;0.33;;;;;;;;;;5035747;28;20412;-72
2021/12/04 06:40:37;;;;;;;0.40;0.40;;;;;;;;;;5017996;28;20482;-71
2021/12/04 06:43:04;;;;;;;0.40;0.40;;;;;;;;;;5035755;28;20890;-72
2021/12/04 06:45:32;;;;;;;0.30;0.30;;;;;;;;;;5036007;28;20447;-72
2021/12/04 06:48:02;;;;;;;0.30;0.30;;;;;;;;;;5035666;28;20487;-72
2021/12/04 06:50:47;;;;;;;2.00;0.33;;;;;;;;;;5035551;28;20420;-72
2021/12/04 06:53:35;;;;;;;0.30;0.30;;;;;;;;;;5035496;28;20807;-72
2021/12/04 06:56:03;;;;;;;0.40;0.40;;;;;;;;;;5035506;28;20475;-72
2021/12/04 06:58:29;;;;;;;0.40;0.40;;;;;;;;;;5035426;28;20396;-72
2021/12/04 07:00:56;;;;;;;0.40;0.40;;;;;;;;;;5035389;28;20891;-72
2021/12/04 07:03:22;;;;;;;0.30;0.30;;;;;;;;;;5035379;28;20754;-72
2021/12/04 07:05:48;;;;;;;0.40;0.40;;;;;;;;;;5035273;28;20458;-72
2021/12/04 07:08:15;;;;;;;0.47;0.47;;;;;;;;;;5035209;28;20450;-72
2021/12/04 07:10:41;;;;;;;0.30;0.30;;;;;;;;;;5035246;28;20417;-72
2021/12/04 07:13:08;;;;;;;0.30;0.30;;;;;;;;;;5035195;28;20475;-72
2021/12/04 07:15:35;;;;;;;0.40;0.40;;;;;;;;;;5035005;28;20451;-72
2021/12/04 07:18:01;;;;;;;0.30;0.30;;;;;;;;;;5035257;28;20419;-72
2021/12/04 07:20:28;;;;;;;0.30;0.30;;;;;;;;;;5035043;28;20906;-72
2021/12/04 07:22:54;;;;;;;0.50;0.40;;;;;;;;;;5034935;28;20954;-72
2021/12/04 07:25:20;;;;;;;0.30;0.30;;;;;;;;;;5035222;28;20487;-72
2021/12/04 07:27:47;;;;;;;0.30;0.30;;;;;;;;;;5034940;28;20503;-72
2021/12/04 07:30:14;;;;;;;0.30;0.30;;;;;;;;;;5035092;28;20466;-71
2021/12/04 07:32:40;;;;;;;0.30;0.30;;;;;;;;;;5034729;28;20412;-72
2021/12/04 07:35:06;;;;;;;0.30;0.30;;;;;;;;;;5034949;28;20400;-72
2021/12/04 07:37:32;;;;;;;0.30;0.30;;;;;;;;;;5034890;28;20418;-72
2021/12/04 07:39:59;;;;;;;0.30;0.30;;;;;;;;;;5034640;28;20438;-72
2021/12/04 07:42:25;;;;;;;0.30;0.30;;;;;;;;;;5034836;28;20454;-71
2021/12/04 07:44:51;;;;;;;0.30;0.30;;;;;;;;;;5034638;28;20412;-72
2021/12/04 07:47:17;;;;;;;1.23;0.40;;;;;;;;;;5034537;28;20907;-72
2021/12/04 07:49:43;;;;;;;0.30;0.30;;;;;;;;;;5034331;28;21027;-74
2021/12/04 07:52:10;;;;;;;0.40;0.40;;;;;;;;;;5034694;28;20760;-73
2021/12/04 07:54:36;;;;;;;0.37;0.37;;;;;;;;;;5034448;28;20536;-72
2021/12/04 07:57:03;;;;;;;0.30;0.30;;;;;;;;;;5034607;28;20949;-73
2021/12/04 07:59:29;;;;;;;0.30;0.30;;;;;;;;;;5034561;28;20769;-72
2021/12/04 08:01:55;;;;;;;1.40;1.40;;;;;;;;;;5034250;28;20415;-70
2021/12/04 08:04:22;;;;;;;0.40;0.40;;;;;;;;;;5034208;28;20870;-70
2021/12/04 08:06:48;;;;;;;0.47;0.47;;;;;;;;;;5034204;28;20409;-69
2021/12/04 08:09:14;;;;;;;0.40;0.40;;;;;;;;;;5034436;28;20411;-69
2021/12/04 08:11:40;;;;;;;1.80;0.30;;;;;;;;;;5034043;28;20781;-69
2021/12/04 08:14:06;;;;;;;0.30;0.30;;;;;;;;;;5034008;28;20404;-69
2021/12/04 08:16:33;;;;;;;0.33;0.33;;;;;;;;;;5033928;28;20574;-69
2021/12/04 08:18:59;;;;;;;0.40;0.40;;;;;;;;;;5034244;28;20454;-70
2021/12/04 08:21:25;;;;;;;0.30;0.30;;;;;;;;;;5033903;28;20410;-69
2021/12/04 08:23:52;;;;;;;0.40;0.40;;;;;;;;;;5033903;28;20819;-69
2021/12/04 08:26:18;;;;;;;0.40;0.40;;;;;;;;;;5034040;28;20427;-69
2021/12/04 08:28:44;;;;;;;0.80;0.80;;;;;;;;;;5033195;28;20878;-70
2021/12/04 08:31:10;;;;;;;0.30;0.30;;;;;;;;;;5034001;28;20414;-71
2021/12/04 08:33:36;;;;;;;0.30;0.30;;;;;;;;;;5033635;28;20397;-68
2021/12/04 08:36:04;;;;;;;0.40;0.40;;;;;;;;;;5033512;28;20487;-70
2021/12/04 08:38:30;;;;;;;0.37;0.37;;;;;;;;;;5033871;28;20416;-68
2021/12/04 08:40:56;;;;;;;0.40;0.40;;;;;;;;;;5033679;28;20479;-68
2021/12/04 08:43:22;;;;;;;0.50;0.50;;;;;;;;;;5033527;28;20510;-69
2021/12/04 08:45:48;;;;;;;0.30;0.30;;;;;;;;;;5033510;28;20400;-70
2021/12/04 08:48:14;;;;;;;0.53;0.30;;;;;;;;;;5033584;28;20400;-71
2021/12/04 08:50:40;;;;;;;0.40;0.40;;;;;;;;;;5033703;28;20432;-71
2021/12/04 08:53:06;;;;;;;0.40;0.40;;;;;;;;;;5033397;28;20447;-70
2021/12/04 08:55:35;;;;;;;0.70;0.50;;;;;;;;;;5033359;28;20864;-71
2021/12/04 08:58:01;;;;;;;0.40;0.40;;;;;;;;;;5033315;28;20800;-70
2021/12/04 09:00:27;;;;;;;1.03;0.43;;;;;;;;;;5033375;28;20396;-72
2021/12/04 09:02:53;;;;;;;0.40;0.40;;;;;;;;;;5033572;28;20811;-72
2021/12/04 09:05:20;;;;;;;0.63;0.63;;;;;;;;;;5033579;28;20400;-71
2021/12/04 09:07:46;;;;;;;1.17;1.07;;;;;;;;;;5033282;28;20407;-70
2021/12/04 09:10:13;;;;;;;0.50;0.40;;;;;;;;;;5033267;28;20404;-71
2021/12/04 09:12:40;;;;;;;0.47;0.47;;;;;;;;;;5033207;28;20887;-69
2021/12/04 09:15:07;;;;;;;0.47;0.30;;;;;;;;;;5033478;28;20415;-70
2021/12/04 09:17:33;;;;;;;0.40;0.40;;;;;;;;;;5033342;28;20459;-70
2021/12/04 09:19:59;;;;;;;0.90;0.30;;;;;;;;;;5033437;28;20399;-71
2021/12/04 09:22:32;;;;;;;0.70;0.70;;;;;;;;;;5033394;28;20407;-70
2021/12/04 09:24:59;;;;;;;0.70;0.70;;;;;;;;;;5033004;28;20407;-70
2021/12/04 10:02:32;;;;;;;0.40;0.40;;;;;;;;;;5036799;28;20419;-69
2021/12/04 10:21:17;;;;;;;0.60;0.60;;;;;;;;;;5036440;28;20406;-71
2021/12/04 10:34:36;;;;;;;0.70;0.70;;;;;;;;;;5033399;28;20419;-67
2021/12/04 10:37:06;;;;;;;0.50;0.50;;;;;;;;;;5034703;28;20467;-67
2021/12/04 10:39:32;;;;;;;4.77;0.80;;;;;;;;;;5034576;28;20409;-66
2021/12/04 10:42:00;;;;;;;0.40;0.40;;;;;;;;;;5034433;28;20752;-66
2021/12/04 10:44:27;;;;;;;0.40;0.40;;;;;;;;;;5034592;28;20446;-68
2021/12/04 10:46:54;;;;;;;1.80;0.50;;;;;;;;;;5034324;28;20400;-67
2021/12/04 10:52:36;;;;;;;0.53;0.50;;;;;;;;;;5034035;28;20396;-66
2021/12/04 10:55:11;;;;;;;0.50;0.50;;;;;;;;;;5034267;28;20503;-70
2021/12/04 11:00:47;;;;;;;0.50;0.50;;;;;;;;;;5034114;28;20758;-70
2021/12/04 11:03:23;;;;;;;0.50;0.50;;;;;;;;;;5033829;28;20461;-70
2021/12/04 11:06:31;;;;;;;0.50;0.50;;;;;;;;;;5034048;28;20404;-69
2021/12/04 11:28:59;;;;;;;0.70;0.70;;;;;;;;;;5032639;28;20761;-69
2021/12/04 11:42:29;;;;;;;1.50;0.43;;;;;;;;;;4995327;28;20412;-67
2021/12/04 11:45:10;;;;;;;0.57;0.57;;;;;;;;;;5033127;28;20432;-66
2021/12/04 11:47:40;;;;;;;0.70;0.70;;;;;;;;;;5032974;28;20428;-66
2021/12/04 11:50:16;;;;;;;0.70;0.70;;;;;;;;;;5032845;28;20507;-68
2021/12/04 11:52:46;;;;;;;0.50;0.50;;;;;;;;;;5033039;28;20843;-68
2021/12/04 11:55:12;;;;;;;0.50;0.50;;;;;;;;;;5033050;28;20411;-68
2021/12/04 11:57:39;;;;;;;0.40;0.40;;;;;;;;;;5032501;28;20942;-69
2021/12/04 12:00:17;;;;;;;0.67;0.67;;;;;;;;;;5032845;28;20940;-69
2021/12/04 12:02:44;;;;;;;0.73;0.73;;;;;;;;;;5032080;28;20509;-68
2021/12/04 12:05:22;;;;;;;0.70;0.70;;;;;;;;;;5033152;28;20404;-67
2021/12/04 12:07:54;;;;;;;0.40;0.40;;;;;;;;;;5033576;28;20408;-71
2021/12/04 12:10:20;;;;;;;0.50;0.50;;;;;;;;;;5034349;28;20502;-69
2021/12/04 12:12:47;;;;;;;0.90;0.90;;;;;;;;;;5034316;28;20412;-69
2021/12/04 12:15:28;;;;;;;0.67;0.53;;;;;;;;;;5033952;28;20408;-69
2021/12/04 12:17:55;;;;;;;0.70;0.70;;;;;;;;;;5033943;28;20510;-68
2021/12/04 12:20:40;;;;;;;0.47;0.47;;;;;;;;;;5034031;28;20407;-69
2021/12/04 12:23:08;;;;;;;1.83;0.50;;;;;;;;;;5034110;28;20406;-69
2021/12/04 12:34:04;;;;;;;0.40;0.40;;;;;;;;;;5034049;28;20403;-68
2021/12/04 12:36:32;;;;;;;0.90;0.90;;;;;;;;;;5033878;28;20498;-69
2021/12/04 12:38:58;;;;;;;0.80;0.80;;;;;;;;;;5033549;28;20411;-68
2021/12/04 12:41:30;;;;;;;0.40;0.40;;;;;;;;;;5033455;28;20408;-70
2021/12/04 12:44:17;;;;;;;0.73;0.73;;;;;;;;;;5033726;28;20411;-70
2021/12/04 12:46:45;;;;;;;0.80;0.80;;;;;;;;;;5033594;28;20478;-68
2021/12/04 12:49:20;;;;;;;0.50;0.50;;;;;;;;;;5033227;28;20459;-70
2021/12/04 12:51:57;;;;;;;0.63;0.63;;;;;;;;;;5033583;28;20416;-69
2021/12/04 12:54:25;;;;;;;0.63;0.63;;;;;;;;;;5033643;28;20403;-70
2021/12/04 12:56:57;;;;;;;0.90;0.80;;;;;;;;;;5033609;28;20463;-69
2021/12/04 12:59:36;;;;;;;0.90;0.90;;;;;;;;;;5033293;28;20414;-69
2021/12/04 13:13:28;;;;;;;1.30;1.30;;;;;;;;;;5033525;28;20398;-69
2021/12/04 13:16:00;;;;;;;0.63;0.63;;;;;;;;;;5037081;28;20555;-69
2021/12/04 13:18:26;;;;;;;1.03;0.80;;;;;;;;;;5037380;28;20415;-70
2021/12/04 13:20:53;;;;;;;1.00;1.00;;;;;;;;;;5037318;28;20412;-70
2021/12/04 13:23:22;;;;;;;1.00;1.00;;;;;;;;;;5037235;28;20400;-70
2021/12/04 13:26:08;;;;;;;0.73;0.73;;;;;;;;;;5037366;28;20449;-70
2021/12/04 13:28:35;;;;;;;0.40;0.40;;;;;;;;;;5036972;28;20462;-71
2021/12/04 13:31:02;;;;;;;0.50;0.50;;;;;;;;;;5037165;28;20434;-72
2021/12/04 13:33:32;;;;;;;0.40;0.40;;;;;;;;;;5037041;28;20426;-71
2021/12/04 13:35:58;;;;;;;0.60;0.50;;;;;;;;;;5036822;28;20462;-71
2021/12/04 13:38:25;;;;;;;0.40;0.40;;;;;;;;;;5036866;28;20917;-68
2021/12/04 13:40:52;;;;;;;0.50;0.47;;;;;;;;;;5037085;28;20396;-71
2021/12/04 13:43:19;;;;;;;0.40;0.40;;;;;;;;;;5036820;28;20404;-73
2021/12/04 13:45:46;;;;;;;0.70;0.70;;;;;;;;;;5036849;28;20396;-71
2021/12/04 13:48:12;;;;;;;0.63;0.63;;;;;;;;;;5036486;28;20553;-73
2021/12/04 13:53:26;;;;;;;2.53;0.97;;;;;;;;;;5036610;28;20766;-72
2021/12/04 13:56:04;;;;;;;0.50;0.50;;;;;;;;;;5036533;28;20455;-72
2021/12/04 13:58:30;;;;;;;0.50;0.50;;;;;;;;;;5036471;28;20431;-72
2021/12/04 14:00:56;;;;;;;0.50;0.50;;;;;;;;;;5036441;28;20399;-72
2021/12/04 14:03:23;;;;;;;0.40;0.40;;;;;;;;;;5036475;28;20404;-71
2021/12/04 14:05:49;;;;;;;0.70;0.70;;;;;;;;;;5036519;28;20412;-71
2021/12/04 14:08:15;;;;;;;0.53;0.53;;;;;;;;;;5036413;28;20459;-73
2021/12/04 14:10:42;;;;;;;0.57;0.57;;;;;;;;;;5018501;28;20451;-70
2021/12/04 14:13:09;;;;;;;0.87;0.73;;;;;;;;;;5036282;28;20782;-70
2021/12/04 14:15:35;;;;;;;0.70;0.70;;;;;;;;;;5036186;28;20499;-71
2021/12/04 14:18:11;;;;;;;0.57;0.57;;;;;;;;;;5036545;28;20455;-69
2021/12/04 14:20:39;;;;;;;1.43;1.03;;;;;;;;;;5036183;28;20427;-71
2021/12/04 14:23:05;;;;;;;1.37;1.37;;;;;;;;;;5036160;28;20416;-70
2021/12/04 14:25:31;;;;;;;0.93;0.87;;;;;;;;;;5035387;28;20765;-72
2021/12/04 14:27:59;;;;;;;0.73;0.73;;;;;;;;;;5035811;28;20408;-72
2021/12/04 14:30:32;;;;;;;3.60;3.40;;;;;;;;;;5036046;28;20768;-71
2021/12/04 14:32:59;;;;;;;0.90;0.90;;;;;;;;;;5035900;28;20779;-72
2021/12/04 14:35:31;;;;;;;2.50;1.20;;;;;;;;;;5035832;28;20910;-70
2021/12/04 14:37:57;;;;;;;1.40;1.40;;;;;;;;;;5035866;28;20570;-72
2021/12/04 14:40:28;;;;;;;4.57;1.20;;;;;;;;;;5035802;28;20835;-71
2021/12/04 14:42:54;;;;;;;1.60;1.50;;;;;;;;;;5035858;28;20411;-72
2021/12/04 14:45:29;;;;;;;1.43;1.33;;;;;;;;;;5036001;28;20502;-71
2021/12/04 14:48:12;;;;;;;2.30;1.57;;;;;;;;;;5035937;28;20414;-71
2021/12/04 14:50:40;;;;;;;1.17;1.17;;;;;;;;;;5035611;28;20430;-72
2021/12/04 14:53:07;;;;;;;1.00;1.00;;;;;;;;;;5035777;28;20408;-72
2021/12/04 14:55:35;;;;;;;1.10;1.10;;;;;;;;;;5035458;28;20400;-71
2021/12/04 14:58:02;;;;;;;1.10;1.10;;;;;;;;;;5035489;28;20511;-71
2021/12/04 15:00:32;;;;;;;0.83;0.83;;;;;;;;;;5035380;28;20497;-71
2021/12/04 15:02:58;;;;;;;1.27;1.17;;;;;;;;;;5035351;28;20440;-72
2021/12/04 15:05:38;;;;;;;1.27;1.27;;;;;;;;;;5035641;28;20174;-72
2021/12/04 15:08:11;;;;;;;2.30;2.10;;;;;;;;;;5035571;28;20416;-72
2021/12/04 15:10:38;;;;;;;6.90;6.40;;;;;;;;;;5035273;28;20438;-72
2021/12/04 15:13:08;;;;;;;2.57;2.47;;;;;;;;;;5035509;28;20431;-71
2021/12/04 15:15:36;;;;;;;1.40;1.40;;;;;;;;;;5035326;28;20420;-72
2021/12/04 15:18:09;;;;;;;1.97;1.77;;;;;;;;;;5035174;28;20426;-71
2021/12/04 15:20:38;;;;;;;5.37;5.17;;;;;;;;;;5035324;28;20411;-71
2021/12/04 15:23:08;;;;;;;3.30;3.20;;;;;;;;;;5035096;28;20408;-71
2021/12/04 15:25:36;;;;;;;3.30;3.20;;;;;;;;;;5035224;28;20412;-71
2021/12/04 15:28:13;;;;;;;1.13;1.13;;;;;;;;;;5035224;28;20512;-71
2021/12/04 15:30:43;;;;;;;3.93;1.23;;;;;;;;;;5034875;28;20404;-70
2021/12/04 15:33:19;;;;;;;1.33;1.27;;;;;;;;;;5034899;28;20446;-71
2021/12/04 15:35:49;;;;;;;1.90;1.80;;;;;;;;;;5034706;28;20439;-70
2021/12/04 15:38:25;;;;;;;2.10;2.00;;;;;;;;;;5034924;28;20763;-70
2021/12/04 15:46:15;;;;;;;6.40;5.80;;;;;;;;;;5034899;28;20413;-72
2021/12/04 15:54:07;;;;;;;6.37;5.97;;;;;;;;;;5034460;28;20538;-71
2021/12/04 15:56:43;;;;;;;4.00;2.23;;;;;;;;;;5034329;28;20853;-71
2021/12/04 15:59:13;;;;;;;7.27;6.87;;;;;;;;;;5034305;28;20461;-71
2021/12/04 16:01:38;;;;;;;11.40;10.40;;;;;;;;;;5034435;28;20483;-71
2021/12/04 16:04:05;;;;;;;10.40;9.60;;;;;;;;;;5034175;28;20440;-71
2021/12/04 16:06:40;;;;;;;26.20;17.13;;;;;;;;;;5034262;28;20872;-70
2021/12/04 16:09:08;;;;;;;4.53;4.33;;;;;;;;;;5034467;28;20530;-70
2021/12/04 16:11:38;;;;;;;1.43;1.43;;;;;;;;;;5034395;28;20408;-70
2021/12/04 16:14:05;;;;;;;1.33;1.33;;;;;;;;;;5034068;28;20495;-72
2021/12/04 16:16:33;;;;;;;3.23;1.67;;;;;;;;;;5034180;28;20506;-70
2021/12/04 16:19:00;;;;;;;1.20;1.20;;;;;;;;;;5034031;28;20479;-71
2021/12/04 16:21:26;;;;;;;1.70;1.70;;;;;;;;;;5033916;28;20871;-71
2021/12/04 16:23:54;;;;;;;1.23;1.00;;;;;;;;;;5034143;28;20407;-71
2021/12/04 16:26:23;;;;;;;16.47;14.73;;;;;;;;;;5034159;28;20400;-70
2021/12/04 16:29:04;;;;;;;0.67;0.67;;;;;;;;;;5034059;28;20400;-69
2021/12/04 16:37:05;;;;;;;0.77;0.77;;;;;;;;;;5033976;28;20463;-71
2021/12/04 16:39:31;;;;;;;1.27;1.27;;;;;;;;;;5033930;28;20428;-70
2021/12/04 16:41:57;;;;;;;1.00;1.00;;;;;;;;;;5033905;28;20471;-71
2021/12/04 16:44:23;;;;;;;1.60;1.50;;;;;;;;;;5033772;28;20770;-71
2021/12/04 16:46:50;;;;;;;1.30;1.30;;;;;;;;;;5033567;28;20434;-72
2021/12/04 16:49:17;;;;;;;1.17;1.17;;;;;;;;;;5033073;28;20466;-72
2021/12/04 16:59:48;;;;;;;0.90;0.90;;;;;;;;;;5033790;28;20501;-74
2021/12/04 17:02:14;;;;;;;0.80;0.80;;;;;;;;;;5033450;28;20457;-73
2021/12/04 17:04:41;;;;;;;2.10;1.73;;;;;;;;;;5033283;28;20407;-72
2021/12/04 17:07:07;;;;;;;1.10;1.10;;;;;;;;;;5033577;28;20417;-76
2021/12/04 17:09:33;;;;;;;1.40;1.40;;;;;;;;;;5033490;28;20399;-72
2021/12/04 17:12:00;;;;;;;4.43;1.90;;;;;;;;;;5033412;28;20391;-74
2021/12/04 17:14:29;;;;;;;1.70;1.60;;;;;;;;;;5033279;28;20820;-74
2021/12/04 17:16:58;;;;;;;1.40;1.40;;;;;;;;;;5033174;28;20467;-74
2021/12/04 17:19:24;;;;;;;2.20;1.50;;;;;;;;;;5033224;28;20559;-75
2021/12/04 17:21:50;;;;;;;1.10;1.00;;;;;;;;;;5033194;28;20418;-74
2021/12/04 17:24:17;;;;;;;1.00;1.00;;;;;;;;;;5033154;28;20427;-75
2021/12/04 17:26:44;;;;;;;1.27;1.17;;;;;;;;;;5033120;28;20408;-74
2021/12/04 17:29:12;;;;;;;1.07;1.07;;;;;;;;;;5033133;28;20400;-74
2021/12/04 17:31:38;;;;;;;1.10;1.10;;;;;;;;;;5032971;28;20508;-71
2021/12/04 17:34:05;;;;;;;1.40;1.40;;;;;;;;;;5033139;28;20408;-72
2021/12/04 17:36:32;;;;;;;1.60;1.50;;;;;;;;;;5033041;28;20554;-72
2021/12/04 17:38:59;;;;;;;0.70;0.70;;;;;;;;;;5033037;28;20411;-71
2021/12/04 17:41:30;;;;;;;1.60;1.60;;;;;;;;;;5032975;28;20404;-71
2021/12/04 17:43:56;;;;;;;1.90;0.90;;;;;;;;;;5032907;28;20483;-72
2021/12/04 17:46:23;;;;;;;1.07;1.07;;;;;;;;;;5032962;28;20439;-73
2021/12/04 17:48:50;;;;;;;0.77;0.77;;;;;;;;;;5032966;28;20558;-72
2021/12/04 17:51:20;;;;;;;1.20;1.10;;;;;;;;;;5033078;28;20462;-75
2021/12/04 17:53:46;;;;;;;0.70;0.70;;;;;;;;;;5032932;28;20378;-71
2021/12/04 17:56:12;;;;;;;1.13;1.13;;;;;;;;;;5032806;28;20528;-71
2021/12/04 17:58:39;;;;;;;1.00;1.00;;;;;;;;;;5032865;28;20864;-71
2021/12/04 18:01:08;;;;;;;1.63;0.80;;;;;;;;;;5033671;28;20475;-73
2021/12/04 18:03:34;;;;;;;0.70;0.70;;;;;;;;;;5036596;28;20941;-72
2021/12/04 18:06:03;;;;;;;0.60;0.60;;;;;;;;;;5036514;28;20400;-71
2021/12/04 18:08:29;;;;;;;0.77;0.77;;;;;;;;;;5036699;28;20486;-72
2021/12/04 18:10:56;;;;;;;1.00;1.00;;;;;;;;;;5036405;28;20890;-71
2021/12/04 18:13:23;;;;;;;0.73;0.73;;;;;;;;;;5036387;28;20396;-78
2021/12/04 18:15:59;;;;;;;0.90;0.90;;;;;;;;;;5036586;28;20403;-76
2021/12/04 18:18:25;;;;;;;0.70;0.70;;;;;;;;;;5036551;28;20420;-76
2021/12/04 18:20:51;;;;;;;0.93;0.93;;;;;;;;;;5036222;28;20442;-77